Time,TemperatureF,DewpointF,PressureIn,WindDirection,WindDirectionDegrees,WindSpeedMPH,WindSpeedGustMPH,Humidity,HourlyPrecipIn,Conditions,Clouds,dailyrainin,SoftwareType,DateUTC
2013-04-26 00:00:00,44.6,4.8,30.13,SSE,152,0.0,4.0,19,0.00,,,0.00,Wunderground v.1.15,2013-04-26 07:00:00,
2013-04-26 00:05:00,44.6,-3.3,30.13,SSE,149,0.0,4.0,13,0.00,,,0.00,Wunderground v.1.15,2013-04-26 07:05:00,
2013-04-26 00:09:00,44.6,-1.8,30.13,SE,144,0.0,4.0,14,0.00,,,0.00,Wunderground v.1.15,2013-04-26 07:09:00,
2013-04-26 00:15:00,44.5,-5.1,30.13,SE,127,0.0,4.0,12,0.00,,,0.00,Wunderground v.1.15,2013-04-26 07:15:00,
2013-04-26 00:20:00,44.5,-5.1,30.13,SE,127,0.0,4.0,12,0.00,,,0.00,Wunderground v.1.15,2013-04-26 07:20:00,
2013-04-26 00:25:00,44.5,-6.9,30.13,SE,127,0.0,4.0,11,0.00,,,0.00,Wunderground v.1.15,2013-04-26 07:25:00,
2013-04-26 00:30:00,44.5,-16.0,30.13,WSW,246,0.0,4.0,7,0.00,,,0.00,Wunderground v.1.15,2013-04-26 07:30:00,
2013-04-26 00:35:00,44.5,-8.8,30.13,SW,219,1.0,4.0,10,0.00,,,0.00,Wunderground v.1.15,2013-04-26 07:35:00,
2013-04-26 00:45:00,44.3,-5.2,30.14,SW,219,0.0,4.0,12,0.00,,,0.00,Wunderground v.1.15,2013-04-26 07:45:00,
2013-04-26 00:50:00,44.3,-19.1,30.14,SW,219,0.0,4.0,6,0.00,,,0.00,Wunderground v.1.15,2013-04-26 07:50:00,
2013-04-26 00:55:00,44.2,-26.9,30.14,SW,219,0.0,4.0,4,0.00,,,0.00,Wunderground v.1.15,2013-04-26 07:55:00,
2013-04-26 01:04:00,43.7,-1.0,30.14,SW,219,0.0,4.0,15,0.00,,,0.00,Wunderground v.1.15,2013-04-26 08:04:00,
2013-04-26 01:10:00,43.6,-9.5,30.15,SW,220,0.0,4.0,10,0.00,,,0.00,Wunderground v.1.15,2013-04-26 08:10:00,
2013-04-26 01:15:00,43.8,-51.3,30.15,NE,44,1.0,4.0,1,0.00,,,0.00,Wunderground v.1.15,2013-04-26 08:15:00,
2013-04-26 01:20:00,43.7,-23.1,30.15,NE,44,1.0,1.0,5,0.00,,,0.00,Wunderground v.1.15,2013-04-26 08:20:00,
2013-04-26 01:24:00,43.6,-19.7,30.15,NE,44,1.0,4.0,6,0.00,,,0.00,Wunderground v.1.15,2013-04-26 08:24:00,
2013-04-26 01:30:00,43.6,-27.3,30.15,NE,44,0.0,4.0,4,0.00,,,0.00,Wunderground v.1.15,2013-04-26 08:30:00,
2013-04-26 01:35:00,43.5,-27.4,30.15,NE,44,0.0,4.0,4,0.00,,,0.00,Wunderground v.1.15,2013-04-26 08:35:00,
2013-04-26 01:40:00,43.4,-16.8,30.15,NE,44,0.0,4.0,7,0.00,,,0.00,Wunderground v.1.15,2013-04-26 08:40:00,
2013-04-26 01:45:00,43.4,-51.5,30.15,NE,44,0.0,4.0,1,0.00,,,0.00,Wunderground v.1.15,2013-04-26 08:45:00,
2013-04-26 01:54:00,43.2,-51.7,30.15,NE,44,0.0,4.0,1,0.00,,,0.00,Wunderground v.1.15,2013-04-26 08:54:00,
2013-04-26 02:00:00,43.3,-99.9,30.16,NE,44,0.0,4.0,0,0.00,,,0.00,Wunderground v.1.15,2013-04-26 09:00:00,
2013-04-26 02:05:00,43.2,-99.9,30.16,NE,44,0.0,4.0,0,0.00,,,0.00,Wunderground v.1.15,2013-04-26 09:05:00,
2013-04-26 02:10:00,42.9,-40.2,30.16,NE,44,0.0,4.0,2,0.00,,,0.00,Wunderground v.1.15,2013-04-26 09:10:00,
2013-04-26 02:14:00,42.8,-40.3,30.16,NE,44,0.0,4.0,2,0.00,,,0.00,Wunderground v.1.15,2013-04-26 09:14:00,
2013-04-26 02:19:00,42.7,-52.0,30.16,NE,37,1.0,4.0,1,0.00,,,0.00,Wunderground v.1.15,2013-04-26 09:19:00,
2013-04-26 02:25:00,42.5,-52.1,30.16,NE,37,1.0,4.0,1,0.00,,,0.00,Wunderground v.1.15,2013-04-26 09:25:00,
2013-04-26 02:30:00,42.4,-99.9,30.17,NE,37,0.0,4.0,0,0.00,,,0.00,Wunderground v.1.15,2013-04-26 09:30:00,
2013-04-26 02:35:00,42.2,-99.9,30.16,NE,37,0.0,4.0,0,0.00,,,0.00,Wunderground v.1.15,2013-04-26 09:35:00,
2013-04-26 02:40:00,42.2,-99.9,30.17,NE,37,0.0,4.0,0,0.00,,,0.00,Wunderground v.1.15,2013-04-26 09:40:00,
2013-04-26 02:45:00,42.0,-99.9,30.17,NE,37,0.0,4.0,0,0.00,,,0.00,Wunderground v.1.15,2013-04-26 09:45:00,
2013-04-26 02:50:00,42.0,-99.9,30.17,North,353,0.0,4.0,0,0.00,,,0.00,Wunderground v.1.15,2013-04-26 09:50:00,
2013-04-26 02:55:00,41.9,-99.9,30.17,NNE,32,0.0,4.0,0,0.00,,,0.00,Wunderground v.1.15,2013-04-26 09:55:00,
2013-04-26 03:00:00,41.9,-99.9,30.17,NNE,31,0.0,4.0,0,0.00,,,0.00,Wunderground v.1.15,2013-04-26 10:00:00,
2013-04-26 03:05:00,41.8,-99.9,30.17,NNE,31,0.0,4.0,0,0.00,,,0.00,Wunderground v.1.15,2013-04-26 10:05:00,
2013-04-26 03:09:00,41.7,-99.9,30.18,NNE,31,0.0,4.0,0,0.00,,,0.00,Wunderground v.1.15,2013-04-26 10:09:00,
2013-04-26 03:15:00,41.6,-99.9,30.18,NE,56,0.0,4.0,0,0.00,,,0.00,Wunderground v.1.15,2013-04-26 10:15:00,
2013-04-26 03:20:00,41.5,-99.9,30.18,NE,53,0.0,4.0,0,0.00,,,0.00,Wunderground v.1.15,2013-04-26 10:20:00,
2013-04-26 03:25:00,41.4,-99.9,30.18,NE,54,0.0,4.0,0,0.00,,,0.00,Wunderground v.1.15,2013-04-26 10:25:00,
2013-04-26 03:30:00,41.3,-99.9,30.18,NE,54,0.0,4.0,0,0.00,,,0.00,Wunderground v.1.15,2013-04-26 10:30:00,
2013-04-26 03:34:00,41.2,-99.9,30.18,NE,53,0.0,4.0,0,0.00,,,0.00,Wunderground v.1.15,2013-04-26 10:34:00,
2013-04-26 03:40:00,41.1,-99.9,30.18,NE,53,0.0,4.0,0,0.00,,,0.00,Wunderground v.1.15,2013-04-26 10:40:00,
2013-04-26 03:45:00,41.0,-99.9,30.18,NNE,15,0.0,4.0,0,0.00,,,0.00,Wunderground v.1.15,2013-04-26 10:45:00,
2013-04-26 03:50:00,40.9,-99.9,30.18,NNE,14,0.0,4.0,0,0.00,,,0.00,Wunderground v.1.15,2013-04-26 10:50:00,
2013-04-26 03:54:00,40.8,-99.9,30.18,NNE,15,0.0,4.0,0,0.00,,,0.00,Wunderground v.1.15,2013-04-26 10:54:00,
2013-04-26 04:00:00,40.8,-99.9,30.18,NNE,15,0.0,4.0,0,0.00,,,0.00,Wunderground v.1.15,2013-04-26 11:00:00,
2013-04-26 04:05:00,40.8,-99.9,30.18,NNE,30,1.0,4.0,0,0.00,,,0.00,Wunderground v.1.15,2013-04-26 11:05:00,
2013-04-26 04:10:00,42.3,-99.9,30.18,NNW,338,1.0,4.0,0,0.00,,,0.00,Wunderground v.1.15,2013-04-26 11:10:00,
2013-04-26 04:15:00,43.7,-99.9,30.18,North,352,1.0,4.0,0,0.00,,,0.00,Wunderground v.1.15,2013-04-26 11:15:00,
2013-04-26 04:20:00,44.4,-99.9,30.18,WSW,246,1.0,4.0,0,0.00,,,0.00,Wunderground v.1.15,2013-04-26 11:20:00,
2013-04-26 04:30:00,44.5,-26.7,30.18,SW,221,1.0,4.0,4,0.00,,,0.00,Wunderground v.1.15,2013-04-26 11:30:00,
2013-04-26 04:35:00,44.6,24.0,30.18,SSW,204,1.0,4.0,44,0.00,,,0.00,Wunderground v.1.15,2013-04-26 11:35:00,
2013-04-26 04:40:00,44.9,26.4,30.18,NW,309,1.0,1.0,48,0.00,,,0.00,Wunderground v.1.15,2013-04-26 11:40:00,
2013-04-26 04:45:00,45.3,29.6,30.18,SSE,162,1.0,4.0,54,0.00,,,0.00,Wunderground v.1.15,2013-04-26 11:45:00,
2013-04-26 04:49:00,45.7,33.8,30.18,NNW,341,1.0,4.0,63,0.00,,,0.00,Wunderground v.1.15,2013-04-26 11:49:00,
2013-04-26 04:55:00,46.4,37.5,30.18,NNW,327,1.0,4.0,71,0.00,,,0.00,Wunderground v.1.15,2013-04-26 11:55:00,
2013-04-26 05:00:00,46.6,38.8,30.18,NE,47,1.0,4.0,74,0.00,,,0.00,Wunderground v.1.15,2013-04-26 12:00:00,
2013-04-26 05:05:00,46.4,37.9,30.18,NW,316,1.0,4.0,72,0.00,,,0.00,Wunderground v.1.15,2013-04-26 12:05:00,
2013-04-26 05:09:00,46.9,40.4,30.18,SW,220,1.0,4.0,78,0.00,,,0.00,Wunderground v.1.15,2013-04-26 12:09:00,
2013-04-26 05:15:00,45.5,39.4,30.19,SSE,163,1.0,4.0,79,0.00,,,0.00,Wunderground v.1.15,2013-04-26 12:15:00,
2013-04-26 05:20:00,43.9,37.2,30.19,SSW,203,1.0,1.0,77,0.00,,,0.00,Wunderground v.1.15,2013-04-26 12:20:00,
2013-04-26 05:25:00,42.8,32.6,30.19,SSW,201,1.0,4.0,67,0.00,,,0.00,Wunderground v.1.15,2013-04-26 12:25:00,
2013-04-26 05:30:00,42.2,25.8,30.19,ESE,118,1.0,1.0,52,0.00,,,0.00,Wunderground v.1.15,2013-04-26 12:30:00,
2013-04-26 05:34:00,41.9,19.3,30.19,ESE,120,0.0,4.0,40,0.00,,,0.00,Wunderground v.1.15,2013-04-26 12:34:00,
2013-04-26 05:40:00,41.7,12.5,30.19,ESE,120,0.0,4.0,30,0.00,,,0.00,Wunderground v.1.15,2013-04-26 12:40:00,
2013-04-26 05:45:00,41.3,8.9,30.19,ESE,120,0.0,4.0,26,0.00,,,0.00,Wunderground v.1.15,2013-04-26 12:45:00,
2013-04-26 05:50:00,40.9,6.8,30.19,SE,127,0.0,4.0,24,0.00,,,0.00,Wunderground v.1.15,2013-04-26 12:50:00,
2013-04-26 05:55:00,40.8,-8.0,30.20,SSE,151,0.0,4.0,12,0.00,,,0.00,Wunderground v.1.15,2013-04-26 12:55:00,
2013-04-26 05:59:00,40.7,-11.8,30.20,SSE,150,0.0,4.0,10,0.00,,,0.00,Wunderground v.1.15,2013-04-26 12:59:00,
2013-04-26 06:05:00,40.8,-99.9,30.20,SSE,150,0.0,4.0,0,0.00,,,0.00,Wunderground v.1.15,2013-04-26 13:05:00,
2013-04-26 06:10:00,40.7,-99.9,30.19,SSE,150,0.0,4.0,0,0.00,,,0.00,Wunderground v.1.15,2013-04-26 13:10:00,
2013-04-26 06:15:00,40.6,-99.9,30.19,SSE,150,0.0,4.0,0,0.00,,,0.00,Wunderground v.1.15,2013-04-26 13:15:00,
2013-04-26 06:20:00,40.5,-99.9,30.20,SSE,150,0.0,4.0,0,0.00,,,0.00,Wunderground v.1.15,2013-04-26 13:20:00,
2013-04-26 06:24:00,40.3,-99.9,30.19,SSE,150,0.0,4.0,0,0.00,,,0.00,Wunderground v.1.15,2013-04-26 13:24:00,
2013-04-26 06:29:00,40.3,-99.9,30.19,SSE,150,0.0,4.0,0,0.00,,,0.00,Wunderground v.1.15,2013-04-26 13:29:00,
2013-04-26 06:35:00,40.3,-99.9,30.19,SSE,151,0.0,4.0,0,0.00,,,0.00,Wunderground v.1.15,2013-04-26 13:35:00,
2013-04-26 06:40:00,40.2,-99.9,30.20,SSE,150,0.0,4.0,0,0.00,,,0.00,Wunderground v.1.15,2013-04-26 13:40:00,
2013-04-26 06:45:00,40.2,-99.9,30.19,SSE,150,0.0,4.0,0,0.00,,,0.00,Wunderground v.1.15,2013-04-26 13:45:00,
2013-04-26 06:50:00,40.2,-99.9,30.20,SSE,150,0.0,4.0,0,0.00,,,0.00,Wunderground v.1.15,2013-04-26 13:50:00,
2013-04-26 06:55:00,40.2,-99.9,30.20,SSE,150,0.0,4.0,0,0.00,,,0.00,Wunderground v.1.15,2013-04-26 13:55:00,
2013-04-26 07:00:00,40.2,-99.9,30.20,SSE,150,0.0,4.0,0,0.00,,,0.00,Wunderground v.1.15,2013-04-26 14:00:00,
2013-04-26 07:05:00,40.4,-99.9,30.20,SSE,150,0.0,4.0,0,0.00,,,0.00,Wunderground v.1.15,2013-04-26 14:05:00,
2013-04-26 07:10:00,40.6,-99.9,30.21,SSE,150,0.0,4.0,0,0.00,,,0.00,Wunderground v.1.15,2013-04-26 14:10:00,
2013-04-26 07:20:00,41.1,-99.9,30.21,SSE,150,0.0,4.0,0,0.00,,,0.00,Wunderground v.1.15,2013-04-26 14:20:00,
2013-04-26 07:25:00,41.4,-99.9,30.21,SSE,150,0.0,4.0,0,0.00,,,0.00,Wunderground v.1.15,2013-04-26 14:25:00,
2013-04-26 07:30:00,41.9,-99.9,30.22,South,187,0.0,4.0,0,0.00,,,0.00,Wunderground v.1.15,2013-04-26 14:30:00,
2013-04-26 07:34:00,42.7,-99.9,30.22,SSE,155,0.0,4.0,0,0.00,,,0.00,Wunderground v.1.15,2013-04-26 14:34:00,
2013-04-26 07:40:00,43.3,-99.9,30.22,SE,146,1.0,4.0,0,0.00,,,0.00,Wunderground v.1.15,2013-04-26 14:40:00,
2013-04-26 07:45:00,43.8,-99.9,30.22,SW,214,1.0,4.0,0,0.00,,,0.00,Wunderground v.1.15,2013-04-26 14:45:00,
2013-04-26 07:50:00,44.1,-99.9,30.22,SE,144,1.0,4.0,0,0.00,,,0.00,Wunderground v.1.15,2013-04-26 14:50:00,
2013-04-26 07:55:00,44.1,-99.9,30.22,SE,143,1.0,4.0,0,0.00,,,0.00,Wunderground v.1.15,2013-04-26 14:55:00,
2013-04-26 08:00:00,44.3,-99.9,30.22,SE,139,0.0,4.0,0,0.00,,,0.00,Wunderground v.1.15,2013-04-26 15:00:00,
2013-04-26 08:04:00,44.6,-99.9,30.22,SW,236,0.0,4.0,0,0.00,,,0.00,Wunderground v.1.15,2013-04-26 15:04:00,
2013-04-26 08:10:00,45.0,-99.9,30.22,SE,145,0.0,4.0,0,0.00,,,0.00,Wunderground v.1.15,2013-04-26 15:10:00,
2013-04-26 08:15:00,45.5,-18.3,30.22,SSE,150,1.0,4.0,6,0.00,,,0.00,Wunderground v.1.15,2013-04-26 15:15:00,
2013-04-26 08:20:00,46.3,14.1,30.22,SSW,194,1.0,4.0,27,0.00,,,0.00,Wunderground v.1.15,2013-04-26 15:20:00,
2013-04-26 08:25:00,46.9,20.0,30.22,SW,228,1.0,4.0,34,0.00,,,0.00,Wunderground v.1.15,2013-04-26 15:25:00,
2013-04-26 08:35:00,48.3,33.8,30.23,SE,131,1.0,4.0,57,0.00,,,0.00,Wunderground v.1.15,2013-04-26 15:35:00,
2013-04-26 08:40:00,49.8,41.5,30.23,SSE,159,1.0,4.0,73,0.00,,,0.00,Wunderground v.1.15,2013-04-26 15:40:00,
2013-04-26 08:45:00,50.6,43.7,30.23,SE,139,1.0,4.0,77,0.00,,,0.00,Wunderground v.1.15,2013-04-26 15:45:00,
2013-04-26 08:50:00,51.4,45.1,30.22,SW,218,1.0,1.0,79,0.00,,,0.00,Wunderground v.1.15,2013-04-26 15:50:00,
2013-04-26 08:55:00,51.9,45.6,30.22,WSW,257,1.0,4.0,79,0.00,,,0.00,Wunderground v.1.15,2013-04-26 15:55:00,
2013-04-26 09:00:00,52.5,46.2,30.23,West,266,0.0,4.0,79,0.00,,,0.00,Wunderground v.1.15,2013-04-26 16:00:00,
2013-04-26 09:05:00,53.9,47.5,30.22,SW,216,0.0,4.0,79,0.00,,,0.00,Wunderground v.1.15,2013-04-26 16:05:00,
2013-04-26 09:10:00,55.2,48.1,30.22,SW,226,1.0,4.0,77,0.00,,,0.00,Wunderground v.1.15,2013-04-26 16:10:00,
2013-04-26 09:14:00,55.4,48.0,30.22,SSE,153,1.0,4.0,76,0.00,,,0.00,Wunderground v.1.15,2013-04-26 16:14:00,
2013-04-26 09:20:00,55.8,48.0,30.22,WSW,249,1.0,4.0,75,0.00,,,0.00,Wunderground v.1.15,2013-04-26 16:20:00,
2013-04-26 09:25:00,55.7,47.9,30.22,South,191,1.0,4.0,75,0.00,,,0.00,Wunderground v.1.15,2013-04-26 16:25:00,
2013-04-26 09:30:00,56.3,48.1,30.22,SSW,198,1.0,4.0,74,0.00,,,0.00,Wunderground v.1.15,2013-04-26 16:30:00,
2013-04-26 09:35:00,55.9,47.4,30.22,SW,224,2.0,4.0,73,0.00,,,0.00,Wunderground v.1.15,2013-04-26 16:35:00,
2013-04-26 09:39:00,55.8,47.6,30.22,South,172,2.0,2.0,74,0.00,,,0.00,Wunderground v.1.15,2013-04-26 16:39:00,
2013-04-26 09:45:00,56.3,48.5,30.22,SE,146,2.0,3.0,75,0.00,,,0.00,Wunderground v.1.15,2013-04-26 16:45:00,
2013-04-26 09:50:00,57.0,48.4,30.22,SE,146,1.0,4.0,73,0.00,,,0.00,Wunderground v.1.15,2013-04-26 16:50:00,
2013-04-26 09:55:00,57.2,49.3,30.22,SSE,167,1.0,4.0,75,0.00,,,0.00,Wunderground v.1.15,2013-04-26 16:55:00,
2013-04-26 10:05:00,57.6,48.3,30.22,SW,225,1.0,4.0,71,0.00,,,0.00,Wunderground v.1.15,2013-04-26 17:05:00,
2013-04-26 10:10:00,58.1,49.9,30.22,SW,233,2.0,4.0,74,0.00,,,0.00,Wunderground v.1.15,2013-04-26 17:10:00,
2013-04-26 10:15:00,58.1,48.4,30.22,SSW,203,2.0,4.0,70,0.00,,,0.00,Wunderground v.1.15,2013-04-26 17:15:00,
2013-04-26 10:20:00,58.6,49.2,30.22,SSW,198,2.0,4.0,71,0.00,,,0.00,Wunderground v.1.15,2013-04-26 17:20:00,
2013-04-26 10:25:00,58.7,49.7,30.22,SW,231,2.0,4.0,72,0.00,,,0.00,Wunderground v.1.15,2013-04-26 17:25:00,
2013-04-26 10:30:00,59.2,49.0,30.22,SE,143,2.0,4.0,69,0.00,,,0.00,Wunderground v.1.15,2013-04-26 17:30:00,
2013-04-26 10:35:00,59.7,50.7,30.22,West,260,2.0,4.0,72,0.00,,,0.00,Wunderground v.1.15,2013-04-26 17:35:00,
2013-04-26 10:40:00,59.9,50.5,30.22,SSW,205,2.0,2.0,71,0.00,,,0.00,Wunderground v.1.15,2013-04-26 17:40:00,
2013-04-26 10:45:00,59.9,50.5,30.22,SW,233,2.0,4.0,71,0.00,,,0.00,Wunderground v.1.15,2013-04-26 17:45:00,
2013-04-26 10:49:00,59.9,48.9,30.22,WSW,242,2.0,5.0,67,0.00,,,0.00,Wunderground v.1.15,2013-04-26 17:49:00,
2013-04-26 10:55:00,60.0,50.2,30.23,WSW,249,2.0,5.0,70,0.00,,,0.00,Wunderground v.1.15,2013-04-26 17:55:00,
2013-04-26 11:00:00,59.8,49.2,30.23,SSE,152,2.0,2.0,68,0.00,,,0.00,Wunderground v.1.15,2013-04-26 18:00:00,
2013-04-26 11:05:00,59.8,50.0,30.23,SSW,211,2.0,3.0,70,0.00,,,0.00,Wunderground v.1.15,2013-04-26 18:05:00,
2013-04-26 11:15:00,60.6,50.8,30.23,SSW,207,2.0,3.0,70,0.00,,,0.00,Wunderground v.1.15,2013-04-26 18:15:00,
2013-04-26 11:20:00,61.0,50.0,30.23,West,272,2.0,4.0,67,0.00,,,0.00,Wunderground v.1.15,2013-04-26 18:20:00,
2013-04-26 11:25:00,60.8,49.4,30.23,West,274,2.0,4.0,66,0.00,,,0.00,Wunderground v.1.15,2013-04-26 18:25:00,
2013-04-26 11:30:00,61.2,50.6,30.23,SW,222,1.0,5.0,68,0.00,,,0.00,Wunderground v.1.15,2013-04-26 18:30:00,
2013-04-26 11:35:00,61.4,50.7,30.23,South,184,1.0,5.0,68,0.00,,,0.00,Wunderground v.1.15,2013-04-26 18:35:00,
2013-04-26 11:39:00,62.4,51.7,30.23,SW,219,2.0,4.0,68,0.00,,,0.00,Wunderground v.1.15,2013-04-26 18:39:00,
2013-04-26 11:45:00,62.6,51.1,30.23,WSW,257,2.0,4.0,66,0.00,,,0.00,Wunderground v.1.15,2013-04-26 18:45:00,
2013-04-26 11:50:00,62.6,50.2,30.23,SSW,203,2.0,4.0,64,0.00,,,0.00,Wunderground v.1.15,2013-04-26 18:50:00,
2013-04-26 11:55:00,63.2,52.5,30.22,SE,137,2.0,5.0,68,0.00,,,0.00,Wunderground v.1.15,2013-04-26 18:55:00,
2013-04-26 12:00:00,62.8,52.1,30.22,WSW,243,2.0,4.0,68,0.00,,,0.00,Wunderground v.1.15,2013-04-26 19:00:00,
2013-04-26 12:05:00,63.0,50.6,30.22,South,190,3.0,4.0,64,0.00,,,0.00,Wunderground v.1.15,2013-04-26 19:05:00,
2013-04-26 12:15:00,63.9,50.2,30.22,West,259,2.0,4.0,61,0.00,,,0.00,Wunderground v.1.15,2013-04-26 19:15:00,
2013-04-26 12:20:00,64.0,52.0,30.22,SE,134,2.0,4.0,65,0.00,,,0.00,Wunderground v.1.15,2013-04-26 19:20:00,
2013-04-26 12:25:00,64.4,51.1,30.22,SSE,163,2.0,4.0,62,0.00,,,0.00,Wunderground v.1.15,2013-04-26 19:25:00,
2013-04-26 12:29:00,64.5,52.0,30.22,SW,219,2.0,2.0,64,0.00,,,0.00,Wunderground v.1.15,2013-04-26 19:29:00,
2013-04-26 12:34:00,64.6,51.7,30.22,WNW,298,2.0,4.0,63,0.00,,,0.00,Wunderground v.1.15,2013-04-26 19:34:00,
2013-04-26 12:40:00,64.7,51.8,30.22,WSW,239,2.0,2.0,63,0.00,,,0.00,Wunderground v.1.15,2013-04-26 19:40:00,
2013-04-26 12:45:00,64.8,53.2,30.22,SSE,152,2.0,3.0,66,0.00,,,0.00,Wunderground v.1.15,2013-04-26 19:45:00,
2013-04-26 12:50:00,65.0,51.7,30.22,SW,226,2.0,2.0,62,0.00,,,0.00,Wunderground v.1.15,2013-04-26 19:50:00,
2013-04-26 13:00:00,65.6,53.1,30.22,West,280,2.0,2.0,64,0.00,,,0.00,Wunderground v.1.15,2013-04-26 20:00:00,
2013-04-26 13:05:00,66.1,53.6,30.22,SW,233,2.0,3.0,64,0.00,,,0.00,Wunderground v.1.15,2013-04-26 20:05:00,
2013-04-26 13:10:00,66.6,54.0,30.22,ESE,117,1.0,4.0,64,0.00,,,0.00,Wunderground v.1.15,2013-04-26 20:10:00,
2013-04-26 13:15:00,66.9,52.6,30.22,SSE,160,2.0,4.0,60,0.00,,,0.00,Wunderground v.1.15,2013-04-26 20:15:00,
2013-04-26 13:25:00,67.2,51.9,30.22,SE,145,2.0,4.0,58,0.00,,,0.00,Wunderground v.1.15,2013-04-26 20:25:00,
2013-04-26 13:30:00,66.5,50.8,30.22,SW,214,3.0,3.0,57,0.00,,,0.00,Wunderground v.1.15,2013-04-26 20:30:00,
2013-04-26 13:35:00,66.5,53.5,30.22,WSW,250,2.0,4.0,63,0.00,,,0.00,Wunderground v.1.15,2013-04-26 20:35:00,
2013-04-26 13:39:00,66.8,50.1,30.22,West,260,1.0,4.0,55,0.00,,,0.00,Wunderground v.1.15,2013-04-26 20:39:00,
2013-04-26 13:44:00,67.7,52.9,30.22,WSW,239,1.0,4.0,59,0.00,,,0.00,Wunderground v.1.15,2013-04-26 20:44:00,
2013-04-26 13:50:00,68.0,50.7,30.22,West,278,2.0,4.0,54,0.00,,,0.00,Wunderground v.1.15,2013-04-26 20:50:00,
2013-04-26 13:55:00,67.3,49.6,30.22,WNW,283,3.0,4.0,53,0.00,,,0.00,Wunderground v.1.15,2013-04-26 20:55:00,
2013-04-26 14:00:00,67.3,48.5,30.22,NW,320,3.0,3.0,51,0.00,,,0.00,Wunderground v.1.15,2013-04-26 21:00:00,
2013-04-26 14:10:00,67.9,49.6,30.21,East,94,2.0,2.0,52,0.00,,,0.00,Wunderground v.1.15,2013-04-26 21:10:00,
2013-04-26 14:15:00,67.9,50.1,30.22,West,264,1.0,4.0,53,0.00,,,0.00,Wunderground v.1.15,2013-04-26 21:15:00,
2013-04-26 14:20:00,67.7,50.5,30.22,SW,229,2.0,4.0,54,0.00,,,0.00,Wunderground v.1.15,2013-04-26 21:20:00,
2013-04-26 14:25:00,67.8,50.5,30.22,SW,236,2.0,4.0,54,0.00,,,0.00,Wunderground v.1.15,2013-04-26 21:25:00,
2013-04-26 14:29:00,68.1,50.3,30.21,West,265,1.0,4.0,53,0.00,,,0.00,Wunderground v.1.15,2013-04-26 21:29:00,
2013-04-26 14:35:00,68.0,48.1,30.21,NNW,327,2.0,4.0,49,0.00,,,0.00,Wunderground v.1.15,2013-04-26 21:35:00,
2013-04-26 14:40:00,67.9,52.1,30.21,SSW,208,2.0,2.0,57,0.00,,,0.00,Wunderground v.1.15,2013-04-26 21:40:00,
2013-04-26 14:45:00,68.2,50.9,30.21,South,181,1.0,4.0,54,0.00,,,0.00,Wunderground v.1.15,2013-04-26 21:45:00,
2013-04-26 14:49:00,67.8,49.5,30.21,SW,225,2.0,4.0,52,0.00,,,0.00,Wunderground v.1.15,2013-04-26 21:49:00,
2013-04-26 14:55:00,67.4,48.1,30.21,West,265,2.0,4.0,50,0.00,,,0.00,Wunderground v.1.15,2013-04-26 21:55:00,
2013-04-26 15:00:00,67.3,49.1,30.21,SW,218,1.0,4.0,52,0.00,,,0.00,Wunderground v.1.15,2013-04-26 22:00:00,
2013-04-26 15:05:00,67.3,49.1,30.21,SSE,163,1.0,4.0,52,0.00,,,0.00,Wunderground v.1.15,2013-04-26 22:05:00,
2013-04-26 15:10:00,67.2,50.0,30.21,South,173,2.0,4.0,54,0.00,,,0.00,Wunderground v.1.15,2013-04-26 22:10:00,
2013-04-26 15:20:00,67.2,47.4,30.20,SW,225,2.0,2.0,49,0.00,,,0.00,Wunderground v.1.15,2013-04-26 22:20:00,
2013-04-26 15:25:00,67.1,46.2,30.20,WSW,239,1.0,4.0,47,0.00,,,0.00,Wunderground v.1.15,2013-04-26 22:25:00,
2013-04-26 15:30:00,67.3,47.5,30.20,NW,319,1.0,1.0,49,0.00,,,0.00,Wunderground v.1.15,2013-04-26 22:30:00,
2013-04-26 15:35:00,67.6,50.4,30.20,SSW,211,1.0,4.0,54,0.00,,,0.00,Wunderground v.1.15,2013-04-26 22:35:00,
2013-04-26 15:45:00,67.3,51.1,30.19,SW,217,2.0,4.0,56,0.00,,,0.00,Wunderground v.1.15,2013-04-26 22:45:00,
2013-04-26 15:50:00,66.9,52.1,30.19,West,261,1.0,4.0,59,0.00,,,0.00,Wunderground v.1.15,2013-04-26 22:50:00,
2013-04-26 15:55:00,67.5,52.2,30.19,SSW,211,1.0,4.0,58,0.00,,,0.00,Wunderground v.1.15,2013-04-26 22:55:00,
2013-04-26 16:00:00,67.6,51.3,30.19,West,279,2.0,4.0,56,0.00,,,0.00,Wunderground v.1.15,2013-04-26 23:00:00,
2013-04-26 16:05:00,66.9,52.1,30.19,West,278,2.0,4.0,59,0.00,,,0.00,Wunderground v.1.15,2013-04-26 23:05:00,
2013-04-26 16:10:00,67.1,51.8,30.19,SW,226,1.0,4.0,58,0.00,,,0.00,Wunderground v.1.15,2013-04-26 23:10:00,
2013-04-26 16:15:00,67.1,49.9,30.19,WSW,252,1.0,4.0,54,0.00,,,0.00,Wunderground v.1.15,2013-04-26 23:15:00,
2013-04-26 16:19:00,67.3,52.0,30.19,SW,225,1.0,4.0,58,0.00,,,0.00,Wunderground v.1.15,2013-04-26 23:19:00,
2013-04-26 16:25:00,67.6,50.4,30.19,WNW,285,2.0,4.0,54,0.00,,,0.00,Wunderground v.1.15,2013-04-26 23:25:00,
2013-04-26 16:30:00,67.5,50.8,30.19,West,262,1.0,4.0,55,0.00,,,0.00,Wunderground v.1.15,2013-04-26 23:30:00,
2013-04-26 16:35:00,67.3,50.6,30.19,SSE,158,1.0,4.0,55,0.00,,,0.00,Wunderground v.1.15,2013-04-26 23:35:00,
2013-04-26 16:40:00,67.4,49.7,30.19,SE,143,2.0,4.0,53,0.00,,,0.00,Wunderground v.1.15,2013-04-26 23:40:00,
2013-04-26 16:44:00,67.5,51.2,30.19,SW,229,2.0,4.0,56,0.00,,,0.00,Wunderground v.1.15,2013-04-26 23:44:00,
2013-04-26 16:49:00,67.4,50.7,30.19,SSW,194,2.0,2.0,55,0.00,,,0.00,Wunderground v.1.15,2013-04-26 23:49:00,
2013-04-26 17:09:00,66.9,51.2,30.18,SW,222,1.0,4.0,57,0.00,,,0.00,Wunderground v.1.15,2013-04-27 00:09:00,
2013-04-26 17:15:00,66.7,51.9,30.18,WSW,239,1.0,4.0,59,0.00,,,0.00,Wunderground v.1.15,2013-04-27 00:15:00,
2013-04-26 17:20:00,66.5,51.7,30.18,SW,217,2.0,4.0,59,0.00,,,0.00,Wunderground v.1.15,2013-04-27 00:20:00,
2013-04-26 17:25:00,66.2,51.4,30.18,SSW,210,2.0,4.0,59,0.00,,,0.00,Wunderground v.1.15,2013-04-27 00:25:00,
2013-04-26 17:29:00,66.1,50.4,30.18,SW,224,2.0,2.0,57,0.00,,,0.00,Wunderground v.1.15,2013-04-27 00:29:00,
2013-04-26 17:34:00,66.2,50.0,30.18,SSE,155,2.0,4.0,56,0.00,,,0.00,Wunderground v.1.15,2013-04-27 00:34:00,
2013-04-26 17:40:00,66.4,51.6,30.18,SW,221,1.0,4.0,59,0.00,,,0.00,Wunderground v.1.15,2013-04-27 00:40:00,
2013-04-26 17:45:00,66.9,50.2,30.17,SE,136,1.0,4.0,55,0.00,,,0.00,Wunderground v.1.15,2013-04-27 00:45:00,
2013-04-26 17:50:00,67.3,49.6,30.18,SW,226,1.0,1.0,53,0.00,,,0.00,Wunderground v.1.15,2013-04-27 00:50:00,
2013-04-26 17:55:00,67.6,49.3,30.17,SW,236,1.0,4.0,52,0.00,,,0.00,Wunderground v.1.15,2013-04-27 00:55:00,
2013-04-26 17:59:00,67.8,50.0,30.17,South,170,2.0,4.0,53,0.00,,,0.00,Wunderground v.1.15,2013-04-27 00:59:00,
2013-04-26 18:05:00,67.7,49.9,30.17,WSW,245,2.0,4.0,53,0.00,,,0.00,Wunderground v.1.15,2013-04-27 01:05:00,
2013-04-26 18:10:00,67.9,49.1,30.17,SSW,195,2.0,4.0,51,0.00,,,0.00,Wunderground v.1.15,2013-04-27 01:10:00,
2013-04-26 18:15:00,67.7,49.4,30.17,SW,235,2.0,4.0,52,0.00,,,0.00,Wunderground v.1.15,2013-04-27 01:15:00,
2013-04-26 18:20:00,67.4,49.2,30.17,SW,222,1.0,4.0,52,0.00,,,0.00,Wunderground v.1.15,2013-04-27 01:20:00,
2013-04-26 18:24:00,67.1,48.4,30.17,WSW,249,1.0,4.0,51,0.00,,,0.00,Wunderground v.1.15,2013-04-27 01:24:00,
2013-04-26 18:30:00,66.9,49.7,30.17,WSW,239,1.0,4.0,54,0.00,,,0.00,Wunderground v.1.15,2013-04-27 01:30:00,
2013-04-26 18:35:00,66.6,48.9,30.17,West,274,1.0,4.0,53,0.00,,,0.00,Wunderground v.1.15,2013-04-27 01:35:00,
2013-04-26 18:40:00,66.3,49.6,30.17,SSW,207,1.0,4.0,55,0.00,,,0.00,Wunderground v.1.15,2013-04-27 01:40:00,
2013-04-26 18:45:00,66.1,49.5,30.17,SE,138,1.0,4.0,55,0.00,,,0.00,Wunderground v.1.15,2013-04-27 01:45:00,
2013-04-26 18:49:00,65.9,50.2,30.17,SW,217,2.0,2.0,57,0.00,,,0.00,Wunderground v.1.15,2013-04-27 01:49:00,
2013-04-26 18:55:00,65.5,50.3,30.17,SW,228,1.0,4.0,58,0.00,,,0.00,Wunderground v.1.15,2013-04-27 01:55:00,
2013-04-26 19:00:00,65.3,49.2,30.17,WSW,255,1.0,4.0,56,0.00,,,0.00,Wunderground v.1.15,2013-04-27 02:00:00,
2013-04-26 19:05:00,64.7,49.6,30.17,WSW,246,1.0,4.0,58,0.00,,,0.00,Wunderground v.1.15,2013-04-27 02:05:00,
2013-04-26 19:09:00,64.1,49.9,30.17,West,269,1.0,4.0,60,0.00,,,0.00,Wunderground v.1.15,2013-04-27 02:09:00,
2013-04-26 19:15:00,63.3,49.6,30.18,WSW,251,1.0,4.0,61,0.00,,,0.00,Wunderground v.1.15,2013-04-27 02:15:00,
2013-04-26 19:20:00,62.6,49.4,30.18,WSW,257,1.0,4.0,62,0.00,,,0.00,Wunderground v.1.15,2013-04-27 02:20:00,
2013-04-26 19:25:00,62.1,48.9,30.17,SW,228,1.0,4.0,62,0.00,,,0.00,Wunderground v.1.15,2013-04-27 02:25:00,
2013-04-26 19:30:00,61.5,47.5,30.17,SW,222,2.0,4.0,60,0.00,,,0.00,Wunderground v.1.15,2013-04-27 02:30:00,
2013-04-26 19:35:00,61.0,47.4,30.17,SW,231,2.0,4.0,61,0.00,,,0.00,Wunderground v.1.15,2013-04-27 02:35:00,
2013-04-26 19:40:00,60.5,46.5,30.17,WSW,257,1.0,4.0,60,0.00,,,0.00,Wunderground v.1.15,2013-04-27 02:40:00,
2013-04-26 19:45:00,60.1,46.6,30.17,SW,225,1.0,4.0,61,0.00,,,0.00,Wunderground v.1.15,2013-04-27 02:45:00,
2013-04-26 19:50:00,59.6,45.7,30.17,SSE,162,1.0,4.0,60,0.00,,,0.00,Wunderground v.1.15,2013-04-27 02:50:00,
2013-04-26 19:55:00,59.3,45.8,30.17,SE,129,1.0,4.0,61,0.00,,,0.00,Wunderground v.1.15,2013-04-27 02:55:00,
2013-04-26 20:00:00,58.9,45.0,30.17,SSE,159,1.0,4.0,60,0.00,,,0.00,Wunderground v.1.15,2013-04-27 03:00:00,
2013-04-26 20:04:00,58.6,45.2,30.17,SSE,155,1.0,4.0,61,0.00,,,0.00,Wunderground v.1.15,2013-04-27 03:04:00,
2013-04-26 20:10:00,58.3,44.9,30.17,SSE,154,0.0,4.0,61,0.00,,,0.00,Wunderground v.1.15,2013-04-27 03:10:00,
2013-04-26 20:15:00,57.9,45.0,30.17,SSE,155,0.0,4.0,62,0.00,,,0.00,Wunderground v.1.15,2013-04-27 03:15:00,
2013-04-26 20:20:00,57.6,45.1,30.17,SSE,154,0.0,4.0,63,0.00,,,0.00,Wunderground v.1.15,2013-04-27 03:20:00,
2013-04-26 20:24:00,57.2,44.7,30.17,SSE,155,0.0,4.0,63,0.00,,,0.00,Wunderground v.1.15,2013-04-27 03:24:00,
2013-04-26 20:30:00,56.7,44.2,30.17,SSE,153,0.0,4.0,63,0.00,,,0.00,Wunderground v.1.15,2013-04-27 03:30:00,
2013-04-26 20:35:00,56.4,44.0,30.18,SE,143,0.0,4.0,63,0.00,,,0.00,Wunderground v.1.15,2013-04-27 03:35:00,
2013-04-26 20:40:00,56.1,44.1,30.18,SE,144,0.0,4.0,64,0.00,,,0.00,Wunderground v.1.15,2013-04-27 03:40:00,
2013-04-26 20:45:00,55.8,45.4,30.18,SE,143,0.0,4.0,68,0.00,,,0.00,Wunderground v.1.15,2013-04-27 03:45:00,
2013-04-26 20:49:00,55.6,46.0,30.18,SE,143,0.0,4.0,70,0.00,,,0.00,Wunderground v.1.15,2013-04-27 03:49:00,
2013-04-26 20:55:00,55.3,44.9,30.19,SE,144,0.0,4.0,68,0.00,,,0.00,Wunderground v.1.15,2013-04-27 03:55:00,
2013-04-26 21:00:00,55.1,45.1,30.19,SE,143,0.0,4.0,69,0.00,,,0.00,Wunderground v.1.15,2013-04-27 04:00:00,
2013-04-26 21:05:00,54.9,45.3,30.19,SE,143,0.0,4.0,70,0.00,,,0.00,Wunderground v.1.15,2013-04-27 04:05:00,
2013-04-26 21:09:00,54.7,46.2,30.19,SE,144,0.0,4.0,73,0.00,,,0.00,Wunderground v.1.15,2013-04-27 04:09:00,
2013-04-26 21:14:00,54.5,46.4,30.19,SE,143,0.0,4.0,74,0.00,,,0.00,Wunderground v.1.15,2013-04-27 04:14:00,
2013-04-26 21:20:00,54.3,45.8,30.19,SE,143,0.0,4.0,73,0.00,,,0.00,Wunderground v.1.15,2013-04-27 04:20:00,
2013-04-26 21:25:00,54.1,46.0,30.19,SE,144,0.0,4.0,74,0.00,,,0.00,Wunderground v.1.15,2013-04-27 04:25:00,
2013-04-26 21:29:00,53.9,46.9,30.19,SE,143,0.0,4.0,77,0.00,,,0.00,Wunderground v.1.15,2013-04-27 04:29:00,
2013-04-26 21:35:00,53.7,47.0,30.19,SE,144,0.0,4.0,78,0.00,,,0.00,Wunderground v.1.15,2013-04-27 04:35:00,
2013-04-26 21:40:00,53.4,46.4,30.19,SE,143,0.0,4.0,77,0.00,,,0.00,Wunderground v.1.15,2013-04-27 04:40:00,
2013-04-26 21:45:00,53.3,46.3,30.20,SE,143,0.0,4.0,77,0.00,,,0.00,Wunderground v.1.15,2013-04-27 04:45:00,
2013-04-26 21:50:00,53.1,46.4,30.20,South,176,0.0,4.0,78,0.00,,,0.00,Wunderground v.1.15,2013-04-27 04:50:00,
2013-04-26 21:55:00,53.0,46.3,30.20,South,176,0.0,4.0,78,0.00,,,0.00,Wunderground v.1.15,2013-04-27 04:55:00,
2013-04-26 22:05:00,52.8,46.1,30.20,South,174,0.0,4.0,78,0.00,,,0.00,Wunderground v.1.15,2013-04-27 05:05:00,
2013-04-26 22:10:00,52.4,46.1,30.19,South,175,0.0,4.0,79,0.00,,,0.00,Wunderground v.1.15,2013-04-27 05:10:00,
2013-04-26 22:15:00,52.3,46.0,30.19,South,174,0.0,4.0,79,0.00,,,0.00,Wunderground v.1.15,2013-04-27 05:15:00,
2013-04-26 22:19:00,52.2,45.5,30.19,South,174,0.0,4.0,78,0.00,,,0.00,Wunderground v.1.15,2013-04-27 05:19:00,
2013-04-26 22:24:00,52.0,45.4,30.19,South,174,0.0,4.0,78,0.00,,,0.00,Wunderground v.1.15,2013-04-27 05:24:00,
2013-04-26 22:30:00,51.9,45.3,30.19,South,175,0.0,4.0,78,0.00,,,0.00,Wunderground v.1.15,2013-04-27 05:30:00,
2013-04-26 22:35:00,51.8,45.2,30.19,South,175,0.0,4.0,78,0.00,,,0.00,Wunderground v.1.15,2013-04-27 05:35:00,
2013-04-26 22:40:00,51.6,45.0,30.18,South,175,0.0,4.0,78,0.00,,,0.00,Wunderground v.1.15,2013-04-27 05:40:00,
2013-04-26 22:44:00,51.5,44.9,30.18,South,174,0.0,4.0,78,0.00,,,0.00,Wunderground v.1.15,2013-04-27 05:44:00,
2013-04-26 22:50:00,51.5,44.5,30.19,South,174,0.0,4.0,77,0.00,,,0.00,Wunderground v.1.15,2013-04-27 05:50:00,
2013-04-26 22:55:00,51.5,44.5,30.19,South,174,0.0,4.0,77,0.00,,,0.00,Wunderground v.1.15,2013-04-27 05:55:00,
2013-04-26 23:00:00,51.3,44.3,30.18,South,174,0.0,4.0,77,0.00,,,0.00,Wunderground v.1.15,2013-04-27 06:00:00,
2013-04-26 23:05:00,51.2,43.5,30.18,South,175,0.0,4.0,75,0.00,,,0.00,Wunderground v.1.15,2013-04-27 06:05:00,
2013-04-26 23:09:00,51.0,43.4,30.17,South,173,0.0,4.0,75,0.00,,,0.00,Wunderground v.1.15,2013-04-27 06:09:00,
2013-04-26 23:15:00,51.0,42.6,30.17,South,173,0.0,4.0,73,0.00,,,0.00,Wunderground v.1.15,2013-04-27 06:15:00,
2013-04-26 23:20:00,50.9,42.6,30.17,South,173,0.0,4.0,73,0.00,,,0.00,Wunderground v.1.15,2013-04-27 06:20:00,
2013-04-26 23:25:00,50.8,42.8,30.17,South,173,0.0,4.0,74,0.00,,,0.00,Wunderground v.1.15,2013-04-27 06:25:00,
2013-04-26 23:30:00,50.8,42.8,30.17,South,173,0.0,4.0,74,0.00,,,0.00,Wunderground v.1.15,2013-04-27 06:30:00,
2013-04-26 23:34:00,50.7,43.4,30.17,South,172,0.0,4.0,76,0.00,,,0.00,Wunderground v.1.15,2013-04-27 06:34:00,
2013-04-26 23:39:00,50.8,42.8,30.17,South,173,0.0,4.0,74,0.00,,,0.00,Wunderground v.1.15,2013-04-27 06:39:00,
2013-04-26 23:45:00,50.8,42.8,30.17,South,173,0.0,4.0,74,0.00,,,0.00,Wunderground v.1.15,2013-04-27 06:45:00,
2013-04-26 23:50:00,50.6,42.6,30.17,South,173,0.0,4.0,74,0.00,,,0.00,Wunderground v.1.15,2013-04-27 06:50:00,
2013-04-26 23:55:00,50.5,42.5,30.17,South,173,0.0,4.0,74,0.00,,,0.00,Wunderground v.1.15,2013-04-27 06:55:00,